Terminal Aerodrome Forecast
Issued by NWS Bismarck, ND

Home | Current Version | Previous Version | Text Only | Print | Product List | Glossary On
Versions: 1 2 3 4 5 6 7 8 9 10 11 12 13 14
536
FTUS43 KBIS 301131
TAFBIS
TAF
KBIS 301131Z 3012/0112 06012KT P6SM FEW040 SCT250
     FM301800 06016G25KT P6SM BKN050 BKN250
     FM010100 05011KT P6SM FEW050
     FM010300 04006KT P6SM SKC=

USA.gov is the U.S. government's official web portal to all federal, state and local government web resources and services.